Terminal Aerodrome Forecast
Issued by NWS Charleston, WV

Current Version | Previous Version | Graphics & Text | Print | Product List | Glossary On
Versions: 1 2 3 4 5 6 7 8 9 10 11 12 13 14 15 16 17 18 19 20 21 22 23 24 25
423
FTUS41 KRLX 100136 AAA
TAFEKN
TAF AMD
KEKN 100136Z 1002/1024 28008G15KT P6SM OVC060
      TEMPO 1003/1004 4SM -SHSN OVC025
     FM100400 28010G17KT 5SM -SHSN BR OVC025
      TEMPO 1004/1007 1SM -SHSN BR OVC015
     FM100700 28012G19KT P6SM OVC025
      TEMPO 1007/1009 2SM -SHSN BKN007 OVC015
     FM100900 28012G19KT 3SM -SHSN OVC015
     FM101400 27013G21KT P6SM OVC025
     FM101900 25011G17KT P6SM BKN080
     FM102300 24009KT P6SM BKN070=

USA.gov is the U.S. government's official web portal to all federal, state and local government web resources and services.